sensor_id;sensor_type;location;lat;lon;timestamp;pressure;altitude;pressure_sealevel;temperature;humidity
79250;BME280;68679;51.030;7.584;2023-05-16T00:00:05;98856.75;;;13.85;60.56
79250;BME280;68679;51.030;7.584;2023-05-16T00:02:35;98853.19;;;13.67;61.13
79250;BME280;68679;51.030;7.584;2023-05-16T00:05:05;98852.81;;;13.60;61.27
79250;BME280;68679;51.030;7.584;2023-05-16T00:07:32;98844.91;;;13.60;61.25
79250;BME280;68679;51.030;7.584;2023-05-16T00:09:58;98851.31;;;13.67;60.76
79250;BME280;68679;51.030;7.584;2023-05-16T00:12:23;98849.41;;;13.59;61.03
79250;BME280;68679;51.030;7.584;2023-05-16T00:14:49;98847.81;;;13.58;61.09
79250;BME280;68679;51.030;7.584;2023-05-16T00:17:15;98847.34;;;13.56;60.93
79250;BME280;68679;51.030;7.584;2023-05-16T00:19:41;98845.38;;;13.62;61.03
79250;BME280;68679;51.030;7.584;2023-05-16T00:22:08;98849.09;;;13.61;60.95
79250;BME280;68679;51.030;7.584;2023-05-16T00:24:35;98846.56;;;13.56;61.05
79250;BME280;68679;51.030;7.584;2023-05-16T00:27:00;98847.63;;;13.55;61.12
79250;BME280;68679;51.030;7.584;2023-05-16T00:29:31;98847.94;;;13.53;61.07
79250;BME280;68679;51.030;7.584;2023-05-16T00:31:56;98851.03;;;13.55;61.27
79250;BME280;68679;51.030;7.584;2023-05-16T00:34:22;98848.09;;;13.57;61.27
79250;BME280;68679;51.030;7.584;2023-05-16T00:36:48;98848.97;;;13.52;61.19
79250;BME280;68679;51.030;7.584;2023-05-16T00:39:14;98843.16;;;13.55;61.15
79250;BME280;68679;51.030;7.584;2023-05-16T00:41:40;98840.91;;;13.49;61.42
79250;BME280;68679;51.030;7.584;2023-05-16T00:44:05;98837.22;;;13.36;61.94
79250;BME280;68679;51.030;7.584;2023-05-16T00:46:31;98841.22;;;13.47;61.73
79250;BME280;68679;51.030;7.584;2023-05-16T00:48:56;98843.63;;;13.44;61.53
79250;BME280;68679;51.030;7.584;2023-05-16T00:51:21;98841.88;;;13.39;61.64
79250;BME280;68679;51.030;7.584;2023-05-16T00:53:47;98840.03;;;13.39;61.78
79250;BME280;68679;51.030;7.584;2023-05-16T00:56:12;98848.22;;;13.38;61.69
79250;BME280;68679;51.030;7.584;2023-05-16T00:58:37;98839.53;;;13.37;61.82
79250;BME280;68679;51.030;7.584;2023-05-16T01:01:03;98839.34;;;13.34;61.87
79250;BME280;68679;51.030;7.584;2023-05-16T01:03:29;98838.09;;;13.31;61.77
79250;BME280;68679;51.030;7.584;2023-05-16T01:05:54;98847.06;;;13.30;61.87
79250;BME280;68679;51.030;7.584;2023-05-16T01:08:20;98839.63;;;13.19;62.61
79250;BME280;68679;51.030;7.584;2023-05-16T01:13:32;98841.56;;;12.99;63.53
79250;BME280;68679;51.030;7.584;2023-05-16T01:16:09;98851.59;;;12.97;63.63
79250;BME280;68679;51.030;7.584;2023-05-16T01:19:12;98849.94;;;13.01;63.86
79250;BME280;68679;51.030;7.584;2023-05-16T01:21:43;98846.53;;;12.87;63.82
79250;BME280;68679;51.030;7.584;2023-05-16T01:24:19;98839.88;;;12.76;64.20
79250;BME280;68679;51.030;7.584;2023-05-16T01:26:47;98848.38;;;12.86;63.64
79250;BME280;68679;51.030;7.584;2023-05-16T01:29:14;98851.19;;;12.90;63.63
79250;BME280;68679;51.030;7.584;2023-05-16T01:31:39;98852.75;;;12.91;63.26
79250;BME280;68679;51.030;7.584;2023-05-16T01:34:05;98864.41;;;12.71;63.66
79250;BME280;68679;51.030;7.584;2023-05-16T01:39:19;98864.94;;;12.87;62.86
79250;BME280;68679;51.030;7.584;2023-05-16T01:44:32;98867.13;;;12.80;63.08
79250;BME280;68679;51.030;7.584;2023-05-16T01:47:01;98865.19;;;12.72;63.07
79250;BME280;68679;51.030;7.584;2023-05-16T01:49:37;98865.47;;;12.70;63.09
79250;BME280;68679;51.030;7.584;2023-05-16T01:52:18;98864.09;;;12.73;63.15
79250;BME280;68679;51.030;7.584;2023-05-16T01:54:46;98876.38;;;12.64;63.42
79250;BME280;68679;51.030;7.584;2023-05-16T01:57:12;98874.03;;;12.62;63.04
79250;BME280;68679;51.030;7.584;2023-05-16T01:59:40;98882.41;;;12.64;63.10
79250;BME280;68679;51.030;7.584;2023-05-16T02:02:06;98886.31;;;12.67;62.95
79250;BME280;68679;51.030;7.584;2023-05-16T02:04:32;98885.06;;;12.78;62.44
79250;BME280;68679;51.030;7.584;2023-05-16T02:06:57;98878.34;;;12.72;62.47
79250;BME280;68679;51.030;7.584;2023-05-16T02:09:24;98888.34;;;12.56;63.10
79250;BME280;68679;51.030;7.584;2023-05-16T02:11:50;98899.84;;;12.60;63.00
79250;BME280;68679;51.030;7.584;2023-05-16T02:14:15;98890.75;;;12.52;62.83
79250;BME280;68679;51.030;7.584;2023-05-16T02:16:40;98891.19;;;12.41;63.26
79250;BME280;68679;51.030;7.584;2023-05-16T02:19:06;98886.72;;;12.22;63.98
79250;BME280;68679;51.030;7.584;2023-05-16T02:21:31;98895.75;;;12.35;63.52
79250;BME280;68679;51.030;7.584;2023-05-16T02:23:56;98897.22;;;12.41;63.17
79250;BME280;68679;51.030;7.584;2023-05-16T02:26:21;98894.13;;;12.39;63.23
79250;BME280;68679;51.030;7.584;2023-05-16T02:28:47;98896.94;;;12.24;63.73
79250;BME280;68679;51.030;7.584;2023-05-16T02:31:30;98902.72;;;12.26;63.57
79250;BME280;68679;51.030;7.584;2023-05-16T02:33:56;98901.47;;;12.37;63.19
79250;BME280;68679;51.030;7.584;2023-05-16T02:36:23;98907.19;;;12.44;62.83
79250;BME280;68679;51.030;7.584;2023-05-16T02:38:48;98903.84;;;12.20;63.07
79250;BME280;68679;51.030;7.584;2023-05-16T02:41:13;98911.53;;;12.16;63.25
79250;BME280;68679;51.030;7.584;2023-05-16T02:43:38;98910.31;;;12.08;63.56
79250;BME280;68679;51.030;7.584;2023-05-16T02:46:04;98923.09;;;12.15;63.51
79250;BME280;68679;51.030;7.584;2023-05-16T02:48:30;98922.81;;;12.17;63.28
79250;BME280;68679;51.030;7.584;2023-05-16T02:50:55;98932.78;;;12.20;63.40
79250;BME280;68679;51.030;7.584;2023-05-16T02:53:21;98924.59;;;12.02;63.71
79250;BME280;68679;51.030;7.584;2023-05-16T02:55:46;98937.88;;;12.11;63.25
79250;BME280;68679;51.030;7.584;2023-05-16T02:58:12;98937.38;;;12.09;63.08
79250;BME280;68679;51.030;7.584;2023-05-16T03:00:37;98929.50;;;12.09;63.11
79250;BME280;68679;51.030;7.584;2023-05-16T03:03:02;98932.13;;;12.09;62.86
79250;BME280;68679;51.030;7.584;2023-05-16T03:05:28;98936.38;;;12.05;62.84
79250;BME280;68679;51.030;7.584;2023-05-16T03:07:53;98937.72;;;12.02;62.80
79250;BME280;68679;51.030;7.584;2023-05-16T03:10:19;98937.44;;;12.04;62.87
79250;BME280;68679;51.030;7.584;2023-05-16T03:12:44;98936.94;;;12.02;63.02
79250;BME280;68679;51.030;7.584;2023-05-16T03:15:10;98946.69;;;12.01;63.01
79250;BME280;68679;51.030;7.584;2023-05-16T03:17:35;98944.84;;;12.02;62.83
79250;BME280;68679;51.030;7.584;2023-05-16T03:20:00;98946.88;;;12.05;62.94
79250;BME280;68679;51.030;7.584;2023-05-16T03:22:25;98955.22;;;11.88;63.42
79250;BME280;68679;51.030;7.584;2023-05-16T03:24:51;98954.03;;;11.75;63.93
79250;BME280;68679;51.030;7.584;2023-05-16T03:27:16;98966.06;;;11.81;63.80
79250;BME280;68679;51.030;7.584;2023-05-16T03:29:41;98970.56;;;11.52;64.69
79250;BME280;68679;51.030;7.584;2023-05-16T03:32:07;98964.03;;;11.49;64.74
79250;BME280;68679;51.030;7.584;2023-05-16T03:34:33;98965.16;;;11.67;64.23
79250;BME280;68679;51.030;7.584;2023-05-16T03:36:58;98980.09;;;11.72;64.04
79250;BME280;68679;51.030;7.584;2023-05-16T03:39:24;98982.78;;;11.38;64.20
79250;BME280;68679;51.030;7.584;2023-05-16T03:41:49;98975.88;;;11.18;64.95
79250;BME280;68679;51.030;7.584;2023-05-16T03:44:15;98997.31;;;10.96;65.49
79250;BME280;68679;51.030;7.584;2023-05-16T03:46:41;98989.22;;;10.92;65.37
79250;BME280;68679;51.030;7.584;2023-05-16T03:49:06;98984.94;;;11.01;65.62
79250;BME280;68679;51.030;7.584;2023-05-16T03:51:31;98998.63;;;10.98;64.98
79250;BME280;68679;51.030;7.584;2023-05-16T03:53:57;98999.88;;;11.01;64.95
79250;BME280;68679;51.030;7.584;2023-05-16T03:56:22;99003.19;;;10.78;65.22
79250;BME280;68679;51.030;7.584;2023-05-16T03:58:47;99007.59;;;10.87;65.12
79250;BME280;68679;51.030;7.584;2023-05-16T04:01:13;99011.34;;;10.76;65.47
79250;BME280;68679;51.030;7.584;2023-05-16T04:03:38;99022.94;;;10.70;65.43
79250;BME280;68679;51.030;7.584;2023-05-16T04:06:05;99023.69;;;10.76;65.20
79250;BME280;68679;51.030;7.584;2023-05-16T04:08:31;99025.63;;;10.55;64.91
79250;BME280;68679;51.030;7.584;2023-05-16T04:10:56;99023.06;;;10.50;65.43
79250;BME280;68679;51.030;7.584;2023-05-16T04:13:21;99034.69;;;10.72;65.12
79250;BME280;68679;51.030;7.584;2023-05-16T04:15:47;99035.72;;;10.82;64.58
79250;BME280;68679;51.030;7.584;2023-05-16T04:18:12;99043.28;;;10.83;64.49
79250;BME280;68679;51.030;7.584;2023-05-16T04:20:37;99041.44;;;10.89;64.25
79250;BME280;68679;51.030;7.584;2023-05-16T04:23:03;99053.50;;;10.85;63.99
79250;BME280;68679;51.030;7.584;2023-05-16T04:25:28;99052.84;;;10.69;64.39
79250;BME280;68679;51.030;7.584;2023-05-16T04:27:55;99057.88;;;10.55;64.68
79250;BME280;68679;51.030;7.584;2023-05-16T04:30:21;99057.09;;;10.55;64.48
79250;BME280;68679;51.030;7.584;2023-05-16T04:32:46;99057.59;;;10.62;64.95
79250;BME280;68679;51.030;7.584;2023-05-16T04:35:12;99052.72;;;10.84;64.48
79250;BME280;68679;51.030;7.584;2023-05-16T04:37:37;99060.94;;;10.72;64.30
79250;BME280;68679;51.030;7.584;2023-05-16T04:40:02;99057.03;;;10.70;64.29
79250;BME280;68679;51.030;7.584;2023-05-16T04:42:28;99065.09;;;10.73;64.17
79250;BME280;68679;51.030;7.584;2023-05-16T04:44:53;99062.63;;;10.48;64.74
79250;BME280;68679;51.030;7.584;2023-05-16T04:47:18;99067.31;;;10.56;65.18
79250;BME280;68679;51.030;7.584;2023-05-16T04:49:43;99074.34;;;10.66;64.49
79250;BME280;68679;51.030;7.584;2023-05-16T04:52:09;99074.34;;;10.61;64.56
79250;BME280;68679;51.030;7.584;2023-05-16T04:54:36;99080.94;;;10.58;64.50
79250;BME280;68679;51.030;7.584;2023-05-16T04:57:02;99073.25;;;10.72;64.34
79250;BME280;68679;51.030;7.584;2023-05-16T04:59:27;99073.03;;;10.68;64.49
79250;BME280;68679;51.030;7.584;2023-05-16T05:01:52;99078.78;;;10.70;64.46
79250;BME280;68679;51.030;7.584;2023-05-16T05:04:18;99084.28;;;10.74;64.12
79250;BME280;68679;51.030;7.584;2023-05-16T05:06:44;99091.13;;;10.65;64.43
79250;BME280;68679;51.030;7.584;2023-05-16T05:09:09;99089.28;;;10.70;64.39
79250;BME280;68679;51.030;7.584;2023-05-16T05:11:35;99087.69;;;10.74;64.05
79250;BME280;68679;51.030;7.584;2023-05-16T05:14:00;99096.31;;;10.80;64.13
79250;BME280;68679;51.030;7.584;2023-05-16T05:16:25;99096.25;;;10.85;64.49
79250;BME280;68679;51.030;7.584;2023-05-16T05:18:51;99099.78;;;10.60;64.36
79250;BME280;68679;51.030;7.584;2023-05-16T05:21:16;99100.44;;;10.32;64.99
79250;BME280;68679;51.030;7.584;2023-05-16T05:23:42;99110.34;;;10.50;65.08
79250;BME280;68679;51.030;7.584;2023-05-16T05:26:07;99113.66;;;10.66;64.80
79250;BME280;68679;51.030;7.584;2023-05-16T05:28:33;99111.81;;;10.71;64.36
79250;BME280;68679;51.030;7.584;2023-05-16T05:30:58;99115.53;;;10.55;64.69
79250;BME280;68679;51.030;7.584;2023-05-16T05:33:26;99113.94;;;10.69;64.64
79250;BME280;68679;51.030;7.584;2023-05-16T05:35:55;99125.59;;;10.38;64.93
79250;BME280;68679;51.030;7.584;2023-05-16T05:38:20;99124.25;;;10.45;65.41
79250;BME280;68679;51.030;7.584;2023-05-16T05:40:45;99126.66;;;10.32;64.80
79250;BME280;68679;51.030;7.584;2023-05-16T05:43:11;99124.25;;;10.40;64.82
79250;BME280;68679;51.030;7.584;2023-05-16T05:45:36;99130.75;;;10.63;65.11
79250;BME280;68679;51.030;7.584;2023-05-16T05:48:02;99132.31;;;10.54;64.10
79250;BME280;68679;51.030;7.584;2023-05-16T05:50:27;99136.00;;;10.53;64.69
79250;BME280;68679;51.030;7.584;2023-05-16T05:52:54;99139.91;;;10.61;64.82
79250;BME280;68679;51.030;7.584;2023-05-16T05:55:19;99142.03;;;10.59;64.38
79250;BME280;68679;51.030;7.584;2023-05-16T05:57:44;99141.75;;;10.55;64.44
79250;BME280;68679;51.030;7.584;2023-05-16T06:00:10;99144.38;;;10.60;64.10
79250;BME280;68679;51.030;7.584;2023-05-16T06:02:36;99154.66;;;10.46;64.49
79250;BME280;68679;51.030;7.584;2023-05-16T06:05:01;99162.81;;;10.14;65.07
79250;BME280;68679;51.030;7.584;2023-05-16T06:07:27;99169.09;;;10.29;65.21
79250;BME280;68679;51.030;7.584;2023-05-16T06:09:52;99173.56;;;10.28;64.95
79250;BME280;68679;51.030;7.584;2023-05-16T06:12:17;99174.34;;;10.39;64.76
79250;BME280;68679;51.030;7.584;2023-05-16T06:14:42;99178.25;;;10.46;64.79
79250;BME280;68679;51.030;7.584;2023-05-16T06:17:08;99180.59;;;10.43;65.03
79250;BME280;68679;51.030;7.584;2023-05-16T06:19:33;99182.44;;;10.47;65.00
79250;BME280;68679;51.030;7.584;2023-05-16T06:21:58;99188.72;;;10.41;65.32
79250;BME280;68679;51.030;7.584;2023-05-16T06:24:23;99187.38;;;10.54;64.61
79250;BME280;68679;51.030;7.584;2023-05-16T06:26:49;99185.81;;;10.58;65.15
79250;BME280;68679;51.030;7.584;2023-05-16T06:29:15;99192.88;;;10.63;65.21
79250;BME280;68679;51.030;7.584;2023-05-16T06:31:41;99194.66;;;10.83;64.64
79250;BME280;68679;51.030;7.584;2023-05-16T06:34:06;99203.03;;;10.85;64.87
79250;BME280;68679;51.030;7.584;2023-05-16T06:36:31;99207.25;;;10.81;64.80
79250;BME280;68679;51.030;7.584;2023-05-16T06:38:57;99206.19;;;10.82;65.01
79250;BME280;68679;51.030;7.584;2023-05-16T06:41:22;99208.28;;;10.85;65.16
79250;BME280;68679;51.030;7.584;2023-05-16T06:43:47;99214.56;;;10.84;64.56
79250;BME280;68679;51.030;7.584;2023-05-16T06:46:13;99219.09;;;10.68;64.72
79250;BME280;68679;51.030;7.584;2023-05-16T06:48:38;99218.56;;;10.66;64.17
79250;BME280;68679;51.030;7.584;2023-05-16T06:51:04;99215.66;;;10.78;65.09
79250;BME280;68679;51.030;7.584;2023-05-16T06:53:29;99216.22;;;10.64;64.47
79250;BME280;68679;51.030;7.584;2023-05-16T06:55:55;99217.28;;;10.58;65.02
79250;BME280;68679;51.030;7.584;2023-05-16T06:58:20;99214.38;;;10.60;64.20
79250;BME280;68679;51.030;7.584;2023-05-16T07:00:47;99223.59;;;10.52;64.56
79250;BME280;68679;51.030;7.584;2023-05-16T07:03:13;99224.09;;;10.49;65.07
79250;BME280;68679;51.030;7.584;2023-05-16T07:05:38;99222.50;;;10.63;64.77
79250;BME280;68679;51.030;7.584;2023-05-16T07:08:04;99218.84;;;10.54;64.71
79250;BME280;68679;51.030;7.584;2023-05-16T07:10:29;99216.00;;;10.56;64.68
79250;BME280;68679;51.030;7.584;2023-05-16T07:12:54;99219.38;;;10.56;64.16
79250;BME280;68679;51.030;7.584;2023-05-16T07:15:20;99224.38;;;10.58;63.31
79250;BME280;68679;51.030;7.584;2023-05-16T07:17:45;99223.53;;;10.72;64.11
79250;BME280;68679;51.030;7.584;2023-05-16T07:20:11;99228.00;;;10.67;64.12
79250;BME280;68679;51.030;7.584;2023-05-16T07:22:39;99232.91;;;10.99;64.11
79250;BME280;68679;51.030;7.584;2023-05-16T07:25:05;99245.56;;;10.71;62.07
79250;BME280;68679;51.030;7.584;2023-05-16T07:27:30;99234.06;;;10.42;62.27
79250;BME280;68679;51.030;7.584;2023-05-16T07:29:56;99239.88;;;10.44;62.87
79250;BME280;68679;51.030;7.584;2023-05-16T07:32:21;99241.38;;;10.60;62.43
79250;BME280;68679;51.030;7.584;2023-05-16T07:34:47;99242.97;;;10.61;62.44
79250;BME280;68679;51.030;7.584;2023-05-16T07:37:12;99249.53;;;10.59;62.03
79250;BME280;68679;51.030;7.584;2023-05-16T07:39:39;99258.69;;;10.61;62.70
79250;BME280;68679;51.030;7.584;2023-05-16T07:42:06;99251.91;;;10.45;62.84
79250;BME280;68679;51.030;7.584;2023-05-16T07:44:32;99252.19;;;10.28;62.30
79250;BME280;68679;51.030;7.584;2023-05-16T07:46:57;99259.78;;;10.14;62.27
79250;BME280;68679;51.030;7.584;2023-05-16T07:49:22;99252.97;;;10.29;62.41
79250;BME280;68679;51.030;7.584;2023-05-16T07:51:48;99252.94;;;10.08;62.46
79250;BME280;68679;51.030;7.584;2023-05-16T07:54:13;99250.06;;;10.05;61.92
79250;BME280;68679;51.030;7.584;2023-05-16T07:56:38;99257.91;;;10.05;62.60
79250;BME280;68679;51.030;7.584;2023-05-16T07:59:04;99251.63;;;10.01;62.56
79250;BME280;68679;51.030;7.584;2023-05-16T08:01:30;99253.97;;;10.12;63.82
79250;BME280;68679;51.030;7.584;2023-05-16T08:03:55;99252.69;;;10.05;62.39
79250;BME280;68679;51.030;7.584;2023-05-16T08:06:20;99255.06;;;10.01;62.96
79250;BME280;68679;51.030;7.584;2023-05-16T08:08:45;99250.84;;;10.05;62.05
79250;BME280;68679;51.030;7.584;2023-05-16T08:11:11;99247.72;;;10.13;61.89
79250;BME280;68679;51.030;7.584;2023-05-16T08:13:36;99250.34;;;10.29;63.19
79250;BME280;68679;51.030;7.584;2023-05-16T08:16:01;99258.44;;;10.37;62.29
79250;BME280;68679;51.030;7.584;2023-05-16T08:18:27;99254.00;;;10.48;61.92
79250;BME280;68679;51.030;7.584;2023-05-16T08:20:52;99250.31;;;10.59;61.77
79250;BME280;68679;51.030;7.584;2023-05-16T08:23:17;99260.25;;;10.78;61.71
79250;BME280;68679;51.030;7.584;2023-05-16T08:25:42;99259.16;;;10.94;60.06
79250;BME280;68679;51.030;7.584;2023-05-16T08:28:08;99243.59;;;11.13;61.51
79250;BME280;68679;51.030;7.584;2023-05-16T08:30:33;99253.50;;;11.26;59.69
79250;BME280;68679;51.030;7.584;2023-05-16T08:32:59;99252.44;;;11.32;58.71
79250;BME280;68679;51.030;7.584;2023-05-16T08:35:28;99246.09;;;11.38;58.47
79250;BME280;68679;51.030;7.584;2023-05-16T08:37:54;99247.81;;;11.58;58.11
79250;BME280;68679;51.030;7.584;2023-05-16T08:40:19;99259.63;;;11.66;58.02
79250;BME280;68679;51.030;7.584;2023-05-16T08:42:46;99246.19;;;11.72;57.38
79250;BME280;68679;51.030;7.584;2023-05-16T08:45:12;99252.41;;;11.87;57.78
79250;BME280;68679;51.030;7.584;2023-05-16T08:47:39;99254.19;;;11.96;56.64
79250;BME280;68679;51.030;7.584;2023-05-16T08:50:08;99248.91;;;12.01;56.25
79250;BME280;68679;51.030;7.584;2023-05-16T08:52:36;99255.44;;;12.04;55.58
79250;BME280;68679;51.030;7.584;2023-05-16T08:55:03;99254.19;;;12.25;54.92
79250;BME280;68679;51.030;7.584;2023-05-16T08:57:33;99257.56;;;12.31;56.99
79250;BME280;68679;51.030;7.584;2023-05-16T08:59:59;99256.63;;;12.51;56.62
79250;BME280;68679;51.030;7.584;2023-05-16T09:02:26;99269.00;;;12.50;55.41
79250;BME280;68679;51.030;7.584;2023-05-16T09:04:52;99264.06;;;12.68;59.21
79250;BME280;68679;51.030;7.584;2023-05-16T09:07:17;99261.63;;;13.00;59.17
79250;BME280;68679;51.030;7.584;2023-05-16T09:09:42;99267.69;;;13.01;57.64
79250;BME280;68679;51.030;7.584;2023-05-16T09:12:08;99271.91;;;12.73;55.55
79250;BME280;68679;51.030;7.584;2023-05-16T09:14:33;99264.38;;;12.90;57.72
79250;BME280;68679;51.030;7.584;2023-05-16T09:17:07;99270.03;;;12.78;54.06
79250;BME280;68679;51.030;7.584;2023-05-16T09:19:41;99266.94;;;12.71;54.13
79250;BME280;68679;51.030;7.584;2023-05-16T09:22:13;99261.06;;;12.79;55.60
79250;BME280;68679;51.030;7.584;2023-05-16T09:24:40;99251.31;;;12.80;54.36
79250;BME280;68679;51.030;7.584;2023-05-16T09:27:07;99272.16;;;13.00;56.48
79250;BME280;68679;51.030;7.584;2023-05-16T09:29:33;99262.03;;;13.12;51.85
79250;BME280;68679;51.030;7.584;2023-05-16T09:32:12;99259.84;;;12.96;53.16
79250;BME280;68679;51.030;7.584;2023-05-16T09:34:48;99282.06;;;13.08;51.83
79250;BME280;68679;51.030;7.584;2023-05-16T09:37:14;99265.34;;;13.23;55.59
79250;BME280;68679;51.030;7.584;2023-05-16T09:39:48;99271.97;;;13.15;52.64
79250;BME280;68679;51.030;7.584;2023-05-16T09:42:15;99267.69;;;13.25;55.67
79250;BME280;68679;51.030;7.584;2023-05-16T09:44:53;99260.34;;;13.22;53.10
79250;BME280;68679;51.030;7.584;2023-05-16T09:47:21;99266.84;;;13.29;52.81
79250;BME280;68679;51.030;7.584;2023-05-16T09:49:52;99259.94;;;13.33;54.11
79250;BME280;68679;51.030;7.584;2023-05-16T09:52:18;99266.22;;;13.37;53.76
79250;BME280;68679;51.030;7.584;2023-05-16T09:54:45;99266.28;;;13.51;54.88
79250;BME280;68679;51.030;7.584;2023-05-16T09:57:17;99263.47;;;13.66;52.15
79250;BME280;68679;51.030;7.584;2023-05-16T09:59:44;99268.94;;;13.70;55.26
79250;BME280;68679;51.030;7.584;2023-05-16T10:02:09;99281.47;;;13.78;54.62
79250;BME280;68679;51.030;7.584;2023-05-16T10:04:37;99288.25;;;13.65;53.47
79250;BME280;68679;51.030;7.584;2023-05-16T10:07:03;99287.38;;;13.70;53.71
79250;BME280;68679;51.030;7.584;2023-05-16T10:09:31;99281.19;;;13.61;53.64
79250;BME280;68679;51.030;7.584;2023-05-16T10:11:57;99284.97;;;13.55;51.44
79250;BME280;68679;51.030;7.584;2023-05-16T10:14:27;99275.28;;;13.69;54.66
79250;BME280;68679;51.030;7.584;2023-05-16T10:16:53;99272.63;;;13.69;52.55
79250;BME280;68679;51.030;7.584;2023-05-16T10:19:20;99272.94;;;13.67;52.72
79250;BME280;68679;51.030;7.584;2023-05-16T10:21:50;99270.66;;;13.80;54.29
79250;BME280;68679;51.030;7.584;2023-05-16T10:24:21;99257.47;;;13.80;51.85
79250;BME280;68679;51.030;7.584;2023-05-16T10:26:49;99270.50;;;13.90;50.48
79250;BME280;68679;51.030;7.584;2023-05-16T10:29:16;99269.88;;;13.79;49.05
79250;BME280;68679;51.030;7.584;2023-05-16T10:31:41;99264.22;;;13.86;51.24
79250;BME280;68679;51.030;7.584;2023-05-16T10:34:07;99254.88;;;13.93;53.22
79250;BME280;68679;51.030;7.584;2023-05-16T10:36:35;99263.78;;;13.98;51.00
79250;BME280;68679;51.030;7.584;2023-05-16T10:39:01;99273.19;;;14.04;50.15
79250;BME280;68679;51.030;7.584;2023-05-16T10:41:26;99268.59;;;14.28;54.04
79250;BME280;68679;51.030;7.584;2023-05-16T10:43:56;99272.38;;;14.22;51.31
79250;BME280;68679;51.030;7.584;2023-05-16T10:46:22;99277.38;;;14.37;55.98
79250;BME280;68679;51.030;7.584;2023-05-16T10:48:48;99283.53;;;14.52;55.63
79250;BME280;68679;51.030;7.584;2023-05-16T10:53:51;99284.91;;;14.30;49.64
79250;BME280;68679;51.030;7.584;2023-05-16T10:56:25;99276.50;;;14.28;52.28
79250;BME280;68679;51.030;7.584;2023-05-16T10:58:52;99278.97;;;14.38;47.22
79250;BME280;68679;51.030;7.584;2023-05-16T11:01:22;99278.94;;;14.06;49.51
79250;BME280;68679;51.030;7.584;2023-05-16T11:14:24;99272.13;;;14.37;48.34
79250;BME280;68679;51.030;7.584;2023-05-16T11:16:51;99270.75;;;14.40;50.46
79250;BME280;68679;51.030;7.584;2023-05-16T11:19:34;99285.22;;;14.42;50.60
79250;BME280;68679;51.030;7.584;2023-05-16T11:24:57;99286.25;;;14.28;47.88
79250;BME280;68679;51.030;7.584;2023-05-16T11:27:25;99277.53;;;14.46;51.62
79250;BME280;68679;51.030;7.584;2023-05-16T11:29:53;99283.44;;;14.57;47.47
79250;BME280;68679;51.030;7.584;2023-05-16T11:32:20;99274.31;;;14.49;50.96
79250;BME280;68679;51.030;7.584;2023-05-16T11:34:46;99279.03;;;14.52;49.35
79250;BME280;68679;51.030;7.584;2023-05-16T11:37:12;99262.41;;;14.52;50.21
79250;BME280;68679;51.030;7.584;2023-05-16T11:39:37;99276.09;;;14.67;51.47
79250;BME280;68679;51.030;7.584;2023-05-16T11:42:03;99273.75;;;14.66;49.71
79250;BME280;68679;51.030;7.584;2023-05-16T11:44:28;99276.09;;;14.67;51.05
79250;BME280;68679;51.030;7.584;2023-05-16T11:46:53;99277.78;;;14.77;50.36
79250;BME280;68679;51.030;7.584;2023-05-16T11:49:19;99272.91;;;14.84;50.71
79250;BME280;68679;51.030;7.584;2023-05-16T11:51:44;99265.28;;;14.96;50.81
79250;BME280;68679;51.030;7.584;2023-05-16T11:54:11;99273.09;;;15.01;48.67
79250;BME280;68679;51.030;7.584;2023-05-16T11:56:38;99281.31;;;15.14;51.81
79250;BME280;68679;51.030;7.584;2023-05-16T11:59:03;99286.09;;;14.98;47.17
79250;BME280;68679;51.030;7.584;2023-05-16T12:01:36;99283.16;;;14.86;49.16
79250;BME280;68679;51.030;7.584;2023-05-16T12:04:12;99290.50;;;14.75;47.04
79250;BME280;68679;51.030;7.584;2023-05-16T12:06:38;99284.44;;;14.74;47.63
79250;BME280;68679;51.030;7.584;2023-05-16T12:09:05;99275.75;;;14.88;50.15
79250;BME280;68679;51.030;7.584;2023-05-16T12:11:40;99266.16;;;15.06;50.80
79250;BME280;68679;51.030;7.584;2023-05-16T12:14:07;99276.63;;;15.11;47.34
79250;BME280;68679;51.030;7.584;2023-05-16T12:16:34;99280.06;;;15.11;48.58
79250;BME280;68679;51.030;7.584;2023-05-16T12:19:01;99283.28;;;15.08;48.76
79250;BME280;68679;51.030;7.584;2023-05-16T12:21:28;99282.69;;;15.25;50.84
79250;BME280;68679;51.030;7.584;2023-05-16T12:23:54;99285.00;;;15.40;49.34
79250;BME280;68679;51.030;7.584;2023-05-16T12:26:31;99282.59;;;15.02;48.91
79250;BME280;68679;51.030;7.584;2023-05-16T12:28:58;99268.78;;;14.92;45.27
79250;BME280;68679;51.030;7.584;2023-05-16T12:31:27;99259.31;;;15.05;46.52
79250;BME280;68679;51.030;7.584;2023-05-16T12:33:52;99256.78;;;15.13;47.45
79250;BME280;68679;51.030;7.584;2023-05-16T12:36:21;99265.22;;;15.51;51.25
79250;BME280;68679;51.030;7.584;2023-05-16T12:38:48;99247.88;;;15.73;50.49
79250;BME280;68679;51.030;7.584;2023-05-16T12:41:31;99252.00;;;15.65;50.58
79250;BME280;68679;51.030;7.584;2023-05-16T12:46:56;99258.94;;;15.61;47.81
79250;BME280;68679;51.030;7.584;2023-05-16T12:49:22;99252.91;;;15.83;51.11
79250;BME280;68679;51.030;7.584;2023-05-16T12:51:49;99253.66;;;15.97;50.98
79250;BME280;68679;51.030;7.584;2023-05-16T12:54:15;99255.50;;;15.97;51.17
79250;BME280;68679;51.030;7.584;2023-05-16T12:56:40;99255.56;;;16.05;50.36
79250;BME280;68679;51.030;7.584;2023-05-16T12:59:07;99266.69;;;16.16;50.48
79250;BME280;68679;51.030;7.584;2023-05-16T13:01:35;99273.66;;;16.12;50.68
79250;BME280;68679;51.030;7.584;2023-05-16T13:04:01;99273.16;;;15.88;46.96
79250;BME280;68679;51.030;7.584;2023-05-16T13:06:26;99268.66;;;15.66;47.17
79250;BME280;68679;51.030;7.584;2023-05-16T13:08:52;99272.16;;;15.61;44.82
79250;BME280;68679;51.030;7.584;2023-05-16T13:11:17;99278.88;;;15.31;46.32
79250;BME280;68679;51.030;7.584;2023-05-16T13:13:43;99275.84;;;15.24;44.21
79250;BME280;68679;51.030;7.584;2023-05-16T13:16:08;99290.41;;;15.35;43.97
79250;BME280;68679;51.030;7.584;2023-05-16T13:18:34;99299.50;;;15.43;47.05
79250;BME280;68679;51.030;7.584;2023-05-16T13:21:00;99290.69;;;15.47;48.06
79250;BME280;68679;51.030;7.584;2023-05-16T13:23:26;99280.00;;;15.66;48.65